sensor_id;sensor_type;location;lat;lon;timestamp;pressure;altitude;pressure_sealevel;temperature;humidity
24752;BME280;27246;52.376;4.628;2023-01-25T00:04:55;103709.41;;;2.09;80.59
24752;BME280;27246;52.376;4.628;2023-01-25T00:09:57;103693.56;;;1.97;80.71
24752;BME280;27246;52.376;4.628;2023-01-25T00:14:58;103685.56;;;2.16;80.85
24752;BME280;27246;52.376;4.628;2023-01-25T00:20:00;103685.66;;;2.13;80.01
24752;BME280;27246;52.376;4.628;2023-01-25T00:25:02;103683.31;;;2.04;80.46
24752;BME280;27246;52.376;4.628;2023-01-25T00:30:04;103673.47;;;2.23;79.19
24752;BME280;27246;52.376;4.628;2023-01-25T00:35:10;103679.69;;;2.27;79.31
24752;BME280;27246;52.376;4.628;2023-01-25T00:40:12;103672.09;;;2.35;78.81
24752;BME280;27246;52.376;4.628;2023-01-25T00:45:14;103660.78;;;2.00;80.17
24752;BME280;27246;52.376;4.628;2023-01-25T00:50:15;103666.03;;;2.28;79.34
24752;BME280;27246;52.376;4.628;2023-01-25T00:55:17;103662.63;;;2.45;78.85
24752;BME280;27246;52.376;4.628;2023-01-25T01:00:22;103659.75;;;2.50;78.40
24752;BME280;27246;52.376;4.628;2023-01-25T01:05:23;103653.38;;;2.49;78.56
24752;BME280;27246;52.376;4.628;2023-01-25T01:10:25;103662.06;;;2.37;78.58
24752;BME280;27246;52.376;4.628;2023-01-25T01:15:26;103645.00;;;2.33;78.42
24752;BME280;27246;52.376;4.628;2023-01-25T01:20:28;103648.53;;;2.35;78.57
24752;BME280;27246;52.376;4.628;2023-01-25T01:25:31;103637.97;;;2.28;79.36
24752;BME280;27246;52.376;4.628;2023-01-25T01:30:33;103640.38;;;2.35;78.95
24752;BME280;27246;52.376;4.628;2023-01-25T01:35:34;103644.81;;;2.14;78.98
24752;BME280;27246;52.376;4.628;2023-01-25T01:40:36;103641.88;;;2.20;80.04
24752;BME280;27246;52.376;4.628;2023-01-25T01:51:10;103637.75;;;1.87;79.38
24752;BME280;27246;52.376;4.628;2023-01-25T01:56:21;103638.50;;;1.90;81.23
24752;BME280;27246;52.376;4.628;2023-01-25T02:01:25;103635.53;;;2.20;79.95
24752;BME280;27246;52.376;4.628;2023-01-25T02:06:37;103635.41;;;2.01;79.47
24752;BME280;27246;52.376;4.628;2023-01-25T02:11:40;103628.41;;;1.70;80.94
24752;BME280;27246;52.376;4.628;2023-01-25T02:16:42;103627.81;;;1.62;81.30
24752;BME280;27246;52.376;4.628;2023-01-25T02:21:45;103627.28;;;1.99;80.78
24752;BME280;27246;52.376;4.628;2023-01-25T02:26:48;103628.22;;;1.98;79.70
24752;BME280;27246;52.376;4.628;2023-01-25T02:31:58;103615.13;;;1.86;80.24
24752;BME280;27246;52.376;4.628;2023-01-25T02:37:01;103605.50;;;1.77;81.21
24752;BME280;27246;52.376;4.628;2023-01-25T02:42:03;103600.75;;;1.83;81.57
24752;BME280;27246;52.376;4.628;2023-01-25T02:47:05;103592.72;;;1.79;81.43
24752;BME280;27246;52.376;4.628;2023-01-25T02:52:07;103590.84;;;1.82;81.86
24752;BME280;27246;52.376;4.628;2023-01-25T02:57:09;103588.22;;;1.78;81.51
24752;BME280;27246;52.376;4.628;2023-01-25T03:02:16;103587.53;;;1.73;81.86
24752;BME280;27246;52.376;4.628;2023-01-25T03:07:19;103589.06;;;1.57;82.35
24752;BME280;27246;52.376;4.628;2023-01-25T03:12:21;103586.38;;;1.57;81.93
24752;BME280;27246;52.376;4.628;2023-01-25T03:17:23;103582.78;;;1.78;82.16
24752;BME280;27246;52.376;4.628;2023-01-25T03:22:25;103583.50;;;1.60;81.38
24752;BME280;27246;52.376;4.628;2023-01-25T03:27:29;103577.97;;;1.63;82.06
24752;BME280;27246;52.376;4.628;2023-01-25T03:32:36;103573.63;;;1.34;83.48
24752;BME280;27246;52.376;4.628;2023-01-25T03:37:42;103570.22;;;1.29;84.00
24752;BME280;27246;52.376;4.628;2023-01-25T03:42:44;103568.88;;;1.15;84.23
24752;BME280;27246;52.376;4.628;2023-01-25T03:47:46;103560.22;;;1.29;84.50
24752;BME280;27246;52.376;4.628;2023-01-25T03:52:48;103546.00;;;1.46;84.04
24752;BME280;27246;52.376;4.628;2023-01-25T03:57:58;103550.66;;;1.19;83.51
24752;BME280;27246;52.376;4.628;2023-01-25T04:02:59;103549.31;;;1.54;82.77
24752;BME280;27246;52.376;4.628;2023-01-25T04:08:02;103537.56;;;1.54;82.06
24752;BME280;27246;52.376;4.628;2023-01-25T04:13:11;103532.66;;;1.40;83.12
24752;BME280;27246;52.376;4.628;2023-01-25T04:18:13;103525.94;;;1.02;82.82
24752;BME280;27246;52.376;4.628;2023-01-25T04:23:15;103518.38;;;0.86;85.92
24752;BME280;27246;52.376;4.628;2023-01-25T04:28:18;103512.28;;;1.05;83.79
24752;BME280;27246;52.376;4.628;2023-01-25T04:33:21;103516.25;;;0.69;86.22
24752;BME280;27246;52.376;4.628;2023-01-25T04:38:23;103519.31;;;0.85;85.50
24752;BME280;27246;52.376;4.628;2023-01-25T04:43:25;103514.25;;;0.99;85.88
24752;BME280;27246;52.376;4.628;2023-01-25T04:48:31;103512.34;;;1.03;83.80
24752;BME280;27246;52.376;4.628;2023-01-25T04:53:37;103513.56;;;0.69;84.26
24752;BME280;27246;52.376;4.628;2023-01-25T04:58:40;103510.69;;;0.74;84.97
24752;BME280;27246;52.376;4.628;2023-01-25T05:03:42;103512.28;;;1.05;85.23
24752;BME280;27246;52.376;4.628;2023-01-25T05:09:08;103505.28;;;0.97;83.35
24752;BME280;27246;52.376;4.628;2023-01-25T05:14:10;103505.28;;;0.74;85.25
24752;BME280;27246;52.376;4.628;2023-01-25T05:19:12;103500.78;;;0.73;84.92
24752;BME280;27246;52.376;4.628;2023-01-25T05:24:33;103500.81;;;0.46;86.17
24752;BME280;27246;52.376;4.628;2023-01-25T05:29:40;103494.19;;;0.80;86.14
24752;BME280;27246;52.376;4.628;2023-01-25T05:34:43;103481.22;;;1.12;84.27
24752;BME280;27246;52.376;4.628;2023-01-25T05:39:45;103490.47;;;1.31;83.28
24752;BME280;27246;52.376;4.628;2023-01-25T05:44:47;103494.81;;;0.88;84.65
24752;BME280;27246;52.376;4.628;2023-01-25T05:49:50;103501.06;;;1.14;83.76
24752;BME280;27246;52.376;4.628;2023-01-25T05:55:04;103510.59;;;0.50;85.75
24752;BME280;27246;52.376;4.628;2023-01-25T06:00:08;103512.16;;;0.57;86.76
24752;BME280;27246;52.376;4.628;2023-01-25T06:05:13;103515.91;;;0.80;85.93
24752;BME280;27246;52.376;4.628;2023-01-25T06:10:15;103508.97;;;0.96;85.15
24752;BME280;27246;52.376;4.628;2023-01-25T06:15:19;103505.75;;;0.85;84.44
24752;BME280;27246;52.376;4.628;2023-01-25T06:20:21;103495.47;;;0.70;85.07
24752;BME280;27246;52.376;4.628;2023-01-25T06:25:38;103492.94;;;0.64;85.53
24752;BME280;27246;52.376;4.628;2023-01-25T06:30:40;103490.03;;;0.70;85.77
24752;BME280;27246;52.376;4.628;2023-01-25T06:35:42;103494.94;;;0.58;85.95
24752;BME280;27246;52.376;4.628;2023-01-25T06:40:43;103485.47;;;0.45;86.35
24752;BME280;27246;52.376;4.628;2023-01-25T06:45:45;103477.84;;;0.56;87.17
24752;BME280;27246;52.376;4.628;2023-01-25T06:50:55;103472.13;;;0.39;86.88
24752;BME280;27246;52.376;4.628;2023-01-25T07:06:16;103481.03;;;0.43;87.00
24752;BME280;27246;52.376;4.628;2023-01-25T07:11:17;103477.50;;;0.40;87.59
24752;BME280;27246;52.376;4.628;2023-01-25T07:16:19;103465.88;;;0.37;87.58
24752;BME280;27246;52.376;4.628;2023-01-25T07:21:22;103462.22;;;0.38;87.33
24752;BME280;27246;52.376;4.628;2023-01-25T07:26:25;103456.59;;;0.44;87.36
24752;BME280;27246;52.376;4.628;2023-01-25T07:31:26;103454.50;;;0.52;87.41
24752;BME280;27246;52.376;4.628;2023-01-25T07:36:31;103445.56;;;0.49;87.50
24752;BME280;27246;52.376;4.628;2023-01-25T07:41:33;103441.72;;;0.56;86.77
24752;BME280;27246;52.376;4.628;2023-01-25T07:46:35;103439.94;;;0.30;87.57
24752;BME280;27246;52.376;4.628;2023-01-25T07:51:36;103435.88;;;0.67;88.12
24752;BME280;27246;52.376;4.628;2023-01-25T07:56:38;103424.84;;;0.71;87.85
24752;BME280;27246;52.376;4.628;2023-01-25T08:01:41;103430.41;;;0.68;87.17
24752;BME280;27246;52.376;4.628;2023-01-25T08:06:42;103434.66;;;0.75;87.51
24752;BME280;27246;52.376;4.628;2023-01-25T08:11:47;103433.22;;;0.65;86.76
24752;BME280;27246;52.376;4.628;2023-01-25T08:16:49;103428.28;;;0.51;87.66
24752;BME280;27246;52.376;4.628;2023-01-25T08:21:51;103423.00;;;0.48;88.83
24752;BME280;27246;52.376;4.628;2023-01-25T08:26:53;103419.72;;;0.64;88.77
24752;BME280;27246;52.376;4.628;2023-01-25T08:31:55;103423.69;;;0.53;88.01
24752;BME280;27246;52.376;4.628;2023-01-25T08:36:56;103428.53;;;0.45;88.54
24752;BME280;27246;52.376;4.628;2023-01-25T08:41:58;103417.41;;;0.53;88.78
24752;BME280;27246;52.376;4.628;2023-01-25T08:47:00;103415.56;;;0.28;89.69
24752;BME280;27246;52.376;4.628;2023-01-25T08:52:02;103408.38;;;0.52;89.77
24752;BME280;27246;52.376;4.628;2023-01-25T08:57:04;103400.56;;;0.43;89.28
24752;BME280;27246;52.376;4.628;2023-01-25T09:02:10;103395.06;;;0.46;88.98
24752;BME280;27246;52.376;4.628;2023-01-25T09:07:12;103390.97;;;0.34;89.75
24752;BME280;27246;52.376;4.628;2023-01-25T09:12:13;103394.06;;;0.24;89.81
24752;BME280;27246;52.376;4.628;2023-01-25T09:17:16;103388.91;;;0.41;89.22
24752;BME280;27246;52.376;4.628;2023-01-25T09:22:17;103375.56;;;0.35;89.56
24752;BME280;27246;52.376;4.628;2023-01-25T09:27:19;103372.19;;;0.53;89.66
24752;BME280;27246;52.376;4.628;2023-01-25T09:32:21;103365.72;;;0.32;89.89
24752;BME280;27246;52.376;4.628;2023-01-25T09:37:27;103367.66;;;0.29;90.93
24752;BME280;27246;52.376;4.628;2023-01-25T09:58:23;103336.56;;;0.39;90.50
24752;BME280;27246;52.376;4.628;2023-01-25T10:03:33;103329.38;;;0.38;90.24
24752;BME280;27246;52.376;4.628;2023-01-25T10:08:48;103322.63;;;0.25;89.98
24752;BME280;27246;52.376;4.628;2023-01-25T10:13:55;103315.81;;;0.38;90.87
24752;BME280;27246;52.376;4.628;2023-01-25T10:19:19;103307.31;;;0.24;91.13
24752;BME280;27246;52.376;4.628;2023-01-25T10:24:42;103301.44;;;0.36;91.09
24752;BME280;27246;52.376;4.628;2023-01-25T10:29:51;103294.00;;;0.41;91.39
24752;BME280;27246;52.376;4.628;2023-01-25T10:34:57;103293.91;;;0.44;90.25
24752;BME280;27246;52.376;4.628;2023-01-25T10:40:05;103284.09;;;0.64;91.18
24752;BME280;27246;52.376;4.628;2023-01-25T10:45:15;103269.22;;;0.52;90.21
24752;BME280;27246;52.376;4.628;2023-01-25T10:56:23;103242.47;;;0.65;90.48
24752;BME280;27246;52.376;4.628;2023-01-25T11:06:36;103242.22;;;0.71;90.40
24752;BME280;27246;52.376;4.628;2023-01-25T11:11:38;103220.53;;;0.71;90.31
24752;BME280;27246;52.376;4.628;2023-01-25T11:16:44;103211.84;;;0.85;90.23
24752;BME280;27246;52.376;4.628;2023-01-25T11:21:51;103199.72;;;0.71;90.71
24752;BME280;27246;52.376;4.628;2023-01-25T11:27:15;103197.56;;;1.02;90.57
24752;BME280;27246;52.376;4.628;2023-01-25T11:32:25;103180.41;;;1.01;89.87
24752;BME280;27246;52.376;4.628;2023-01-25T11:38:03;103153.84;;;0.87;89.61
24752;BME280;27246;52.376;4.628;2023-01-25T11:54:23;103116.25;;;0.78;91.11
24752;BME280;27246;52.376;4.628;2023-01-25T12:05:27;103093.59;;;0.99;90.12
24752;BME280;27246;52.376;4.628;2023-01-25T12:16:03;103068.44;;;0.96;90.61
24752;BME280;27246;52.376;4.628;2023-01-25T12:26:51;103054.53;;;1.04;89.43
24752;BME280;27246;52.376;4.628;2023-01-25T12:32:41;103047.28;;;1.04;89.85
24752;BME280;27246;52.376;4.628;2023-01-25T12:37:31;103028.09;;;1.09;89.69
24752;BME280;27246;52.376;4.628;2023-01-25T12:42:41;103020.31;;;1.20;89.09
24752;BME280;27246;52.376;4.628;2023-01-25T12:47:49;103013.19;;;1.17;88.80
24752;BME280;27246;52.376;4.628;2023-01-25T12:53:01;103008.94;;;1.12;89.03
24752;BME280;27246;52.376;4.628;2023-01-25T12:58:07;103001.19;;;1.23;88.80
24752;BME280;27246;52.376;4.628;2023-01-25T13:03:36;102989.91;;;1.32;89.03
24752;BME280;27246;52.376;4.628;2023-01-25T13:08:45;102982.69;;;1.12;87.81
24752;BME280;27246;52.376;4.628;2023-01-25T13:13:49;102972.25;;;1.22;89.14
24752;BME280;27246;52.376;4.628;2023-01-25T13:18:51;102963.75;;;1.11;88.71
24752;BME280;27246;52.376;4.628;2023-01-25T13:24:11;102957.16;;;1.35;89.06
24752;BME280;27246;52.376;4.628;2023-01-25T13:39:46;102932.34;;;1.24;88.45
24752;BME280;27246;52.376;4.628;2023-01-25T13:44:51;102931.19;;;1.11;88.71
24752;BME280;27246;52.376;4.628;2023-01-25T13:55:19;102922.97;;;1.31;88.13
24752;BME280;27246;52.376;4.628;2023-01-25T14:00:21;102917.41;;;1.34;87.92
24752;BME280;27246;52.376;4.628;2023-01-25T14:05:24;102911.72;;;1.20;88.62
24752;BME280;27246;52.376;4.628;2023-01-25T14:10:27;102914.44;;;1.20;88.97
24752;BME280;27246;52.376;4.628;2023-01-25T14:15:30;102912.25;;;1.28;89.02
24752;BME280;27246;52.376;4.628;2023-01-25T14:20:32;102902.56;;;1.42;89.29
24752;BME280;27246;52.376;4.628;2023-01-25T14:25:34;102885.03;;;1.49;88.57
24752;BME280;27246;52.376;4.628;2023-01-25T14:30:41;102894.66;;;1.37;87.96
24752;BME280;27246;52.376;4.628;2023-01-25T14:35:45;102891.25;;;1.32;88.47
24752;BME280;27246;52.376;4.628;2023-01-25T14:46:32;102867.66;;;1.15;88.18
24752;BME280;27246;52.376;4.628;2023-01-25T14:51:46;102859.81;;;1.09;89.19
24752;BME280;27246;52.376;4.628;2023-01-25T14:56:51;102856.13;;;1.10;89.13
24752;BME280;27246;52.376;4.628;2023-01-25T15:01:57;102855.16;;;0.92;89.29
24752;BME280;27246;52.376;4.628;2023-01-25T15:06:59;102856.41;;;1.04;89.76
24752;BME280;27246;52.376;4.628;2023-01-25T15:12:26;102862.53;;;1.09;89.27
24752;BME280;27246;52.376;4.628;2023-01-25T15:17:39;102868.53;;;0.96;89.51
24752;BME280;27246;52.376;4.628;2023-01-25T15:22:41;102871.75;;;1.05;90.08
24752;BME280;27246;52.376;4.628;2023-01-25T15:27:42;102879.16;;;1.01;89.74
24752;BME280;27246;52.376;4.628;2023-01-25T15:32:44;102869.84;;;1.26;89.82
24752;BME280;27246;52.376;4.628;2023-01-25T15:37:47;102867.06;;;1.27;88.51
24752;BME280;27246;52.376;4.628;2023-01-25T15:42:49;102872.50;;;1.08;89.20
24752;BME280;27246;52.376;4.628;2023-01-25T15:47:51;102859.28;;;1.19;88.68
24752;BME280;27246;52.376;4.628;2023-01-25T15:52:53;102844.97;;;1.16;88.79
24752;BME280;27246;52.376;4.628;2023-01-25T15:57:54;102823.19;;;1.36;89.04
24752;BME280;27246;52.376;4.628;2023-01-25T16:02:57;102824.34;;;1.12;87.97
24752;BME280;27246;52.376;4.628;2023-01-25T16:07:59;102817.34;;;0.89;89.38
24752;BME280;27246;52.376;4.628;2023-01-25T16:13:00;102803.78;;;0.89;90.31
24752;BME280;27246;52.376;4.628;2023-01-25T16:18:03;102787.16;;;1.14;90.36
24752;BME280;27246;52.376;4.628;2023-01-25T16:23:05;102786.84;;;1.03;89.96
24752;BME280;27246;52.376;4.628;2023-01-25T16:28:15;102776.88;;;0.84;90.34
24752;BME280;27246;52.376;4.628;2023-01-25T16:33:21;102758.03;;;0.81;91.15
24752;BME280;27246;52.376;4.628;2023-01-25T16:38:24;102739.91;;;1.00;91.03
24752;BME280;27246;52.376;4.628;2023-01-25T16:43:26;102726.88;;;0.71;91.26
24752;BME280;27246;52.376;4.628;2023-01-25T16:48:43;102709.75;;;0.88;91.75
24752;BME280;27246;52.376;4.628;2023-01-25T16:53:46;102693.00;;;0.60;92.35
24752;BME280;27246;52.376;4.628;2023-01-25T16:58:49;102683.28;;;0.93;91.69
24752;BME280;27246;52.376;4.628;2023-01-25T17:03:53;102686.44;;;0.84;91.22
24752;BME280;27246;52.376;4.628;2023-01-25T17:08:57;102692.69;;;0.86;91.57
24752;BME280;27246;52.376;4.628;2023-01-25T17:14:05;102696.22;;;0.69;91.84
24752;BME280;27246;52.376;4.628;2023-01-25T17:19:11;102692.59;;;0.70;92.04
24752;BME280;27246;52.376;4.628;2023-01-25T17:24:15;102692.41;;;0.73;92.19
24752;BME280;27246;52.376;4.628;2023-01-25T17:29:17;102685.81;;;0.78;91.82
24752;BME280;27246;52.376;4.628;2023-01-25T17:34:19;102673.22;;;0.58;91.94
24752;BME280;27246;52.376;4.628;2023-01-25T17:39:22;102647.09;;;0.75;91.92
24752;BME280;27246;52.376;4.628;2023-01-25T17:44:26;102634.09;;;0.64;91.99
24752;BME280;27246;52.376;4.628;2023-01-25T17:49:27;102645.44;;;0.72;91.76
24752;BME280;27246;52.376;4.628;2023-01-25T17:54:31;102647.16;;;0.56;92.18
24752;BME280;27246;52.376;4.628;2023-01-25T17:59:32;102629.41;;;0.68;91.98
24752;BME280;27246;52.376;4.628;2023-01-25T18:04:34;102632.75;;;0.73;91.65
24752;BME280;27246;52.376;4.628;2023-01-25T18:09:36;102625.75;;;0.86;91.20
24752;BME280;27246;52.376;4.628;2023-01-25T18:14:38;102626.38;;;0.91;91.21
24752;BME280;27246;52.376;4.628;2023-01-25T18:19:40;102612.41;;;0.82;91.19
24752;BME280;27246;52.376;4.628;2023-01-25T18:24:44;102604.41;;;0.61;91.92
24752;BME280;27246;52.376;4.628;2023-01-25T18:34:48;102606.66;;;0.70;92.31
24752;BME280;27246;52.376;4.628;2023-01-25T18:39:52;102579.59;;;0.69;91.97
24752;BME280;27246;52.376;4.628;2023-01-25T18:44:54;102581.16;;;0.55;92.44
24752;BME280;27246;52.376;4.628;2023-01-25T18:49:56;102573.38;;;0.67;93.06
24752;BME280;27246;52.376;4.628;2023-01-25T18:54:57;102578.34;;;0.76;92.43
24752;BME280;27246;52.376;4.628;2023-01-25T18:59:59;102571.22;;;0.56;92.04
24752;BME280;27246;52.376;4.628;2023-01-25T19:05:01;102571.66;;;0.66;92.93
24752;BME280;27246;52.376;4.628;2023-01-25T19:10:03;102559.69;;;0.70;92.69
24752;BME280;27246;52.376;4.628;2023-01-25T19:15:05;102557.44;;;0.60;93.66
24752;BME280;27246;52.376;4.628;2023-01-25T19:20:07;102559.16;;;0.62;92.84
24752;BME280;27246;52.376;4.628;2023-01-25T19:25:09;102560.38;;;0.73;93.38
24752;BME280;27246;52.376;4.628;2023-01-25T19:30:11;102547.53;;;0.77;93.85
24752;BME280;27246;52.376;4.628;2023-01-25T19:35:13;102538.13;;;0.67;92.75
24752;BME280;27246;52.376;4.628;2023-01-25T19:40:15;102541.09;;;0.62;94.32
24752;BME280;27246;52.376;4.628;2023-01-25T19:45:19;102539.72;;;0.71;94.73
24752;BME280;27246;52.376;4.628;2023-01-25T19:50:20;102538.78;;;0.72;94.51
24752;BME280;27246;52.376;4.628;2023-01-25T19:55:22;102536.56;;;0.80;94.75
24752;BME280;27246;52.376;4.628;2023-01-25T20:00:24;102532.56;;;0.70;94.90
24752;BME280;27246;52.376;4.628;2023-01-25T20:05:25;102537.09;;;0.87;95.00
24752;BME280;27246;52.376;4.628;2023-01-25T20:10:28;102527.13;;;0.87;95.41
24752;BME280;27246;52.376;4.628;2023-01-25T20:15:30;102530.16;;;0.98;95.60
24752;BME280;27246;52.376;4.628;2023-01-25T20:20:32;102524.00;;;0.95;95.20
24752;BME280;27246;52.376;4.628;2023-01-25T20:25:34;102527.91;;;1.07;96.58
24752;BME280;27246;52.376;4.628;2023-01-25T20:30:36;102510.75;;;1.06;96.84
24752;BME280;27246;52.376;4.628;2023-01-25T20:35:38;102509.41;;;0.97;97.19
24752;BME280;27246;52.376;4.628;2023-01-25T20:40:39;102500.63;;;0.92;97.19
24752;BME280;27246;52.376;4.628;2023-01-25T20:45:41;102513.09;;;0.96;98.22
24752;BME280;27246;52.376;4.628;2023-01-25T20:50:43;102496.56;;;0.84;98.72
24752;BME280;27246;52.376;4.628;2023-01-25T20:55:53;102494.03;;;0.80;99.33
24752;BME280;27246;52.376;4.628;2023-01-25T21:00:56;102495.88;;;0.80;99.19
24752;BME280;27246;52.376;4.628;2023-01-25T21:05:58;102492.56;;;0.73;99.80
24752;BME280;27246;52.376;4.628;2023-01-25T21:11:01;102482.44;;;0.77;100.00
24752;BME280;27246;52.376;4.628;2023-01-25T21:16:09;102484.03;;;0.81;100.00
24752;BME280;27246;52.376;4.628;2023-01-25T21:21:13;102473.84;;;0.86;100.00
24752;BME280;27246;52.376;4.628;2023-01-25T21:26:27;102473.97;;;1.00;100.00
24752;BME280;27246;52.376;4.628;2023-01-25T21:31:36;102472.59;;;1.09;99.88
24752;BME280;27246;52.376;4.628;2023-01-25T21:36:39;102464.78;;;0.86;99.69
24752;BME280;27246;52.376;4.628;2023-01-25T21:41:40;102466.91;;;0.80;100.00
24752;BME280;27246;52.376;4.628;2023-01-25T21:46:42;102466.56;;;0.87;100.00
24752;BME280;27246;52.376;4.628;2023-01-25T21:51:54;102461.69;;;0.93;100.00
24752;BME280;27246;52.376;4.628;2023-01-25T21:56:57;102464.84;;;1.02;100.00
24752;BME280;27246;52.376;4.628;2023-01-25T22:01:59;102455.69;;;1.04;100.00
24752;BME280;27246;52.376;4.628;2023-01-25T22:07:01;102457.44;;;0.88;100.00
24752;BME280;27246;52.376;4.628;2023-01-25T22:12:03;102446.84;;;0.83;100.00
24752;BME280;27246;52.376;4.628;2023-01-25T22:17:05;102430.31;;;0.72;100.00
24752;BME280;27246;52.376;4.628;2023-01-25T22:22:06;102420.72;;;0.65;100.00
24752;BME280;27246;52.376;4.628;2023-01-25T22:27:29;102428.91;;;0.80;100.00
24752;BME280;27246;52.376;4.628;2023-01-25T22:32:32;102422.63;;;0.80;100.00
24752;BME280;27246;52.376;4.628;2023-01-25T22:37:34;102407.38;;;0.77;100.00
24752;BME280;27246;52.376;4.628;2023-01-25T22:42:38;102410.97;;;0.78;100.00
24752;BME280;27246;52.376;4.628;2023-01-25T22:47:41;102401.53;;;0.85;100.00
24752;BME280;27246;52.376;4.628;2023-01-25T22:52:43;102387.94;;;0.69;100.00
24752;BME280;27246;52.376;4.628;2023-01-25T22:57:44;102403.72;;;0.78;100.00
24752;BME280;27246;52.376;4.628;2023-01-25T23:02:46;102407.09;;;0.99;100.00
24752;BME280;27246;52.376;4.628;2023-01-25T23:07:48;102401.44;;;1.04;100.00
24752;BME280;27246;52.376;4.628;2023-01-25T23:12:51;102405.13;;;0.86;100.00
24752;BME280;27246;52.376;4.628;2023-01-25T23:17:53;102410.78;;;0.98;100.00
24752;BME280;27246;52.376;4.628;2023-01-25T23:23:13;102416.31;;;0.79;100.00
24752;BME280;27246;52.376;4.628;2023-01-25T23:28:17;102405.81;;;1.07;100.00
24752;BME280;27246;52.376;4.628;2023-01-25T23:33:18;102402.75;;;1.13;100.00
24752;BME280;27246;52.376;4.628;2023-01-25T23:38:20;102401.44;;;1.04;100.00
24752;BME280;27246;52.376;4.628;2023-01-25T23:43:22;102397.81;;;1.04;100.00
24752;BME280;27246;52.376;4.628;2023-01-25T23:48:23;102393.69;;;0.96;100.00
24752;BME280;27246;52.376;4.628;2023-01-25T23:53:26;102389.84;;;1.00;100.00
24752;BME280;27246;52.376;4.628;2023-01-25T23:58:28;102379.09;;;0.99;100.00
